In Rescue
 
Open Full Screen Window  High Contrast Mode
Wind Gusting 00 knots
06
March 19, 2019 6:53 PM EDT
Weather Information
Wind Direction
  240 °
Wind Speed
  06 kt (7 mph)
Wind Gust
  00 kt (0 mph)
Altimeter
30.28 in
Visibility
10 SM
Temperature
07° C
45° F
Dewpoint
-05° C
23° F
Humidity
42%
1hr Rain Fall
00.00 in.
24hr Rain Fall
00.00 in.
Sky Condition
Broken @ 6,000 ft
VFR

METAR KOZW 192253Z AUTO 24006KT 10SM BKN060 07/M05 A3028 RMK AO2 T00671054

FAA Disclaimer: The data displayed is for advisory purposes only and is not to be used for flight planning or operations.